createdAt,value
2017-10-19T00:00:58.494Z,8.63
2017-10-19T00:03:27.498Z,8.54
2017-10-19T00:05:56.601Z,8.55
2017-10-19T00:08:24.846Z,8.55
2017-10-19T00:10:53.097Z,8.60
2017-10-19T00:13:21.341Z,8.75
2017-10-19T00:15:49.590Z,8.88
2017-10-19T00:18:18.706Z,8.97
2017-10-19T00:20:46.954Z,8.87
2017-10-19T00:23:15.962Z,8.89
2017-10-19T00:25:44.973Z,8.62
2017-10-19T00:28:13.210Z,8.67
2017-10-19T00:30:41.457Z,8.50
2017-10-19T00:33:09.706Z,8.36
2017-10-19T00:35:37.957Z,8.34
2017-10-19T00:38:06.957Z,8.50
2017-10-19T00:40:35.209Z,8.60
2017-10-19T00:43:04.220Z,8.64
2017-10-19T00:45:32.470Z,8.54
2017-10-19T00:48:00.709Z,8.45
2017-10-19T00:50:28.958Z,8.37
2017-10-19T00:52:57.201Z,8.36
2017-10-19T00:55:26.223Z,8.33
2017-10-19T00:57:54.495Z,8.31
2017-10-19T01:00:22.748Z,8.04
2017-10-19T01:02:50.997Z,7.95
2017-10-19T02:19:57.954Z,7.31
2017-10-19T02:22:26.209Z,7.33
2017-10-19T02:24:54.448Z,7.47
2017-10-19T02:27:23.471Z,7.45
2017-10-19T02:29:51.725Z,7.50
2017-10-19T02:32:20.006Z,7.29
2017-10-19T02:34:48.262Z,7.02
2017-10-19T02:37:17.374Z,6.93
2017-10-19T02:39:45.618Z,7.03
2017-10-19T02:42:13.870Z,6.99
2017-10-19T02:44:42.109Z,7.01
2017-10-19T02:47:10.363Z,7.13
2017-10-19T02:49:39.373Z,7.26
2017-10-19T02:52:07.646Z,7.13
2017-10-19T02:54:35.892Z,7.12
2017-10-19T02:57:04.137Z,7.18
2017-10-19T02:59:32.382Z,7.16
2017-10-19T03:02:00.637Z,7.11
2017-10-19T03:04:28.882Z,7.10
2017-10-19T03:06:57.198Z,7.01
2017-10-19T03:09:25.442Z,6.95
2017-10-19T03:11:53.705Z,7.05
2017-10-19T03:14:21.952Z,6.96
2017-10-19T03:16:50.203Z,6.98
2017-10-19T03:19:18.446Z,7.00
2017-10-19T03:21:47.462Z,6.99
2017-10-19T03:24:15.709Z,6.94
2017-10-19T03:26:44.014Z,6.86
2017-10-19T03:29:12.261Z,6.88
2017-10-19T03:31:40.566Z,6.95
2017-10-19T03:34:08.811Z,6.94
2017-10-19T03:36:37.838Z,7.04
2017-10-19T03:39:06.088Z,7.10
2017-10-19T03:41:34.394Z,7.13
2017-10-19T03:44:02.633Z,7.18
2017-10-19T03:46:30.937Z,7.33
2017-10-19T03:48:59.185Z,7.41
2017-10-19T03:51:27.494Z,7.30
2017-10-19T03:53:55.738Z,7.33
2017-10-19T03:56:23.989Z,7.28
2017-10-19T03:58:52.237Z,7.24
2017-10-19T04:01:20.600Z,7.31
2017-10-19T04:03:48.844Z,7.47
2017-10-19T04:06:17.091Z,7.52
2017-10-19T04:08:45.332Z,7.39
2017-10-19T04:11:13.585Z,7.39
2017-10-19T04:13:42.607Z,7.12
2017-10-19T04:16:10.866Z,7.11
2017-10-19T04:18:39.116Z,7.06
2017-10-19T04:21:07.358Z,7.05
2017-10-19T04:23:35.606Z,7.01
2017-10-19T04:26:03.842Z,6.92
2017-10-19T04:28:32.863Z,6.79
2017-10-19T04:31:01.111Z,6.77
2017-10-19T04:33:30.122Z,6.81
2017-10-19T04:35:59.120Z,6.78
2017-10-19T04:38:27.378Z,6.84
2017-10-19T04:40:56.409Z,6.52
2017-10-19T04:43:24.628Z,6.43
2017-10-19T04:45:54.377Z,6.31
2017-10-19T04:48:22.625Z,6.18
2017-10-19T04:50:51.628Z,6.17
2017-10-19T04:53:20.650Z,6.18
2017-10-19T04:55:48.907Z,6.21
2017-10-19T04:58:17.153Z,6.26
2017-10-19T05:00:45.399Z,6.29
2017-10-19T05:03:13.651Z,6.35
2017-10-19T05:05:41.907Z,6.56
2017-10-19T05:08:10.155Z,6.64
2017-10-19T05:10:38.405Z,6.72
2017-10-19T05:13:06.655Z,6.74
2017-10-19T05:15:34.894Z,6.71
2017-10-19T05:18:04.004Z,6.76
2017-10-19T05:20:32.284Z,6.81
2017-10-19T05:23:00.531Z,6.88
2017-10-19T05:25:28.774Z,6.84
2017-10-19T05:27:57.122Z,6.94
2017-10-19T05:30:25.365Z,6.96
2017-10-19T05:32:54.385Z,6.99
2017-10-19T05:35:22.627Z,6.98
2017-10-19T05:37:50.881Z,6.96
2017-10-19T05:40:19.116Z,6.87
2017-10-19T05:42:47.374Z,6.91
2017-10-19T05:45:16.380Z,6.83
2017-10-19T05:47:44.650Z,6.64
2017-10-19T05:50:12.929Z,6.59
2017-10-19T05:52:41.189Z,6.62
2017-10-19T05:55:10.199Z,6.65
2017-10-19T05:57:38.455Z,6.60
2017-10-19T06:00:07.462Z,6.65
2017-10-19T06:02:35.734Z,6.61
2017-10-19T06:05:03.981Z,6.63
2017-10-19T06:07:32.239Z,6.66
2017-10-19T06:10:00.486Z,6.85
2017-10-19T06:12:28.738Z,6.95
2017-10-19T06:14:56.989Z,6.93
2017-10-19T06:17:34.015Z,7.19
2017-10-19T06:20:02.269Z,7.30
2017-10-19T06:22:30.528Z,7.38
2017-10-19T06:24:59.537Z,7.41
2017-10-19T06:27:27.794Z,7.39
2017-10-19T06:29:56.090Z,7.51
2017-10-19T06:32:24.363Z,7.55
2017-10-19T06:34:52.611Z,7.56
2017-10-19T06:37:20.860Z,7.53
2017-10-19T06:39:49.106Z,7.62
2017-10-19T06:42:17.369Z,7.64
2017-10-19T06:44:45.618Z,7.69
2017-10-19T06:47:13.866Z,7.66
2017-10-19T06:49:42.116Z,7.66
2017-10-19T06:52:10.368Z,7.80
2017-10-19T06:54:38.641Z,7.89
2017-10-19T06:57:06.918Z,7.89
2017-10-19T06:59:35.169Z,7.89
2017-10-19T07:02:04.194Z,7.88
2017-10-19T07:04:32.438Z,8.07
2017-10-19T07:07:01.468Z,8.22
2017-10-19T07:09:29.706Z,8.58
2017-10-19T07:11:57.961Z,8.50
2017-10-19T07:14:26.209Z,8.73
2017-10-19T07:16:54.480Z,8.16
2017-10-19T07:19:22.737Z,8.26
2017-10-19T07:21:50.982Z,8.47
2017-10-19T07:24:20.008Z,8.41
2017-10-19T07:26:48.242Z,8.37
2017-10-19T07:29:16.559Z,8.37
2017-10-19T07:31:44.806Z,8.46
2017-10-19T07:34:13.813Z,8.47
2017-10-19T07:36:42.061Z,8.37
2017-10-19T07:39:10.311Z,8.56
2017-10-19T07:41:38.550Z,8.67
2017-10-19T07:44:06.804Z,8.72
2017-10-19T07:46:35.806Z,9.10
2017-10-19T07:49:04.824Z,9.16
2017-10-19T07:51:33.080Z,9.25
2017-10-19T07:54:01.335Z,9.03
2017-10-19T07:56:30.337Z,8.95
2017-10-19T07:58:59.451Z,9.03
2017-10-19T08:01:27.719Z,9.18
2017-10-19T08:03:56.003Z,9.29
2017-10-19T08:06:24.250Z,9.50
2017-10-19T08:08:53.376Z,9.54
2017-10-19T08:11:21.626Z,9.62
2017-10-19T08:13:50.631Z,9.91
2017-10-19T08:16:18.877Z,9.74
2017-10-19T08:18:47.128Z,9.76
2017-10-19T08:21:15.365Z,9.79
2017-10-19T08:23:43.609Z,9.52
2017-10-19T08:26:12.621Z,9.28
2017-10-19T08:28:41.643Z,8.96
2017-10-19T08:31:09.881Z,8.96
2017-10-19T08:33:38.898Z,8.81
2017-10-19T08:36:07.138Z,8.94
2017-10-19T08:38:35.388Z,9.02
2017-10-19T08:41:03.631Z,9.15
2017-10-19T08:43:31.878Z,9.19
2017-10-19T08:46:00.120Z,9.56
2017-10-19T08:48:28.370Z,9.75
2017-10-19T08:50:56.613Z,9.89
2017-10-19T08:53:25.640Z,9.76
2017-10-19T08:55:53.887Z,9.96
2017-10-19T08:58:22.132Z,9.96
2017-10-19T09:00:51.148Z,10.28
2017-10-19T09:03:19.399Z,10.49
2017-10-19T09:05:48.413Z,10.78
2017-10-19T09:08:16.673Z,10.74
2017-10-19T09:10:45.687Z,11.01
2017-10-19T09:13:13.953Z,10.55
2017-10-19T09:15:42.968Z,10.70
2017-10-19T09:18:11.331Z,10.61
2017-10-19T09:20:39.581Z,10.68
2017-10-19T09:23:08.612Z,10.60
2017-10-19T09:25:36.862Z,11.13
2017-10-19T09:28:05.975Z,11.28
2017-10-19T09:30:34.222Z,11.36
2017-10-19T09:33:03.252Z,11.43
2017-10-19T09:35:31.513Z,11.61
2017-10-19T09:37:59.771Z,11.26
2017-10-19T09:40:28.890Z,11.56
2017-10-19T09:42:57.146Z,11.43
2017-10-19T09:45:26.168Z,11.64
2017-10-19T09:47:54.418Z,11.62
2017-10-19T09:50:23.437Z,11.70
2017-10-19T09:52:51.693Z,11.58
2017-10-19T09:55:19.946Z,11.68
2017-10-19T09:57:48.970Z,11.83
2017-10-19T10:00:17.222Z,12.07
2017-10-19T10:02:46.228Z,11.97
2017-10-19T10:05:14.483Z,12.05
2017-10-19T10:07:42.737Z,12.35
2017-10-19T10:10:10.989Z,12.34
2017-10-19T10:12:39.233Z,12.16
2017-10-19T10:15:07.486Z,11.71
2017-10-19T10:17:36.505Z,11.97
2017-10-19T10:20:04.765Z,12.07
2017-10-19T10:22:33.782Z,11.95
2017-10-19T10:25:02.047Z,12.52
2017-10-19T10:27:30.289Z,12.90
2017-10-19T10:29:59.310Z,12.76
2017-10-19T10:32:28.317Z,12.92
2017-10-19T10:34:56.579Z,13.34
2017-10-19T10:37:25.595Z,13.49
2017-10-19T10:39:53.854Z,13.43
2017-10-19T10:42:22.102Z,13.56
2017-10-19T10:44:50.358Z,13.82
2017-10-19T10:47:18.607Z,13.68
2017-10-19T10:49:46.859Z,14.06
2017-10-19T10:52:15.102Z,14.58
2017-10-19T10:54:43.356Z,14.47
2017-10-19T10:57:11.599Z,15.29
2017-10-19T10:59:39.852Z,15.68
2017-10-19T11:02:08.857Z,15.26
2017-10-19T11:04:37.125Z,15.05
2017-10-19T11:07:05.372Z,15.30
2017-10-19T11:09:33.630Z,15.36
2017-10-19T11:12:01.887Z,15.44
2017-10-19T11:14:30.230Z,15.76
2017-10-19T11:16:58.475Z,16.19
2017-10-19T11:19:26.721Z,16.80
2017-10-19T11:21:54.972Z,17.76
2017-10-19T11:24:23.218Z,18.61
2017-10-19T11:26:52.237Z,16.52
2017-10-19T11:29:20.477Z,19.02
2017-10-19T11:31:49.486Z,19.17
2017-10-19T11:34:17.753Z,17.58
2017-10-19T11:36:46.859Z,20.10
2017-10-19T11:39:15.110Z,18.48
2017-10-19T11:41:44.126Z,18.87
2017-10-19T11:44:12.415Z,16.73
2017-10-19T11:46:40.662Z,18.15
2017-10-19T11:49:09.689Z,18.10
2017-10-19T11:51:37.932Z,19.32
2017-10-19T11:54:06.942Z,19.90
2017-10-19T11:56:35.190Z,18.64
2017-10-19T11:59:03.444Z,18.15
2017-10-19T12:01:32.454Z,17.42
2017-10-19T12:04:00.707Z,17.27
2017-10-19T12:06:28.954Z,16.67
2017-10-19T12:08:57.213Z,16.19
2017-10-19T12:11:25.454Z,16.58
2017-10-19T12:13:54.278Z,16.32
2017-10-19T12:16:22.531Z,16.30
2017-10-19T12:18:51.546Z,16.81
2017-10-19T12:21:19.792Z,17.91
2017-10-19T12:23:48.813Z,18.08
2017-10-19T12:26:17.054Z,21.13
2017-10-19T12:28:45.302Z,19.41
2017-10-19T12:31:13.550Z,18.54
2017-10-19T12:33:41.802Z,18.28
2017-10-19T12:36:10.826Z,17.62
2017-10-19T12:38:39.078Z,17.50
2017-10-19T12:41:07.321Z,17.66
2017-10-19T12:43:35.578Z,17.54
2017-10-19T12:46:03.819Z,19.07
2017-10-19T12:48:32.074Z,19.64
2017-10-19T12:51:01.082Z,19.77
2017-10-19T12:53:29.355Z,21.96
2017-10-19T12:55:57.609Z,21.88
2017-10-19T12:58:26.618Z,21.92
2017-10-19T13:00:54.873Z,21.90
2017-10-19T13:03:23.887Z,22.69
2017-10-19T13:05:52.140Z,23.22
2017-10-19T13:08:21.157Z,22.54
2017-10-19T13:10:49.409Z,24.11
2017-10-19T13:13:18.426Z,24.54
2017-10-19T13:15:46.674Z,22.59
2017-10-19T13:18:15.686Z,24.36
2017-10-19T13:20:44.706Z,23.50
2017-10-19T13:23:12.953Z,23.35
2017-10-19T13:25:41.974Z,24.00
2017-10-19T13:28:10.221Z,23.64
2017-10-19T13:30:39.237Z,23.80
2017-10-19T13:33:07.483Z,24.28
2017-10-19T13:35:36.503Z,24.41
2017-10-19T13:38:04.754Z,23.86
2017-10-19T13:40:33.765Z,24.70
2017-10-19T13:43:02.019Z,24.56
2017-10-19T13:45:31.043Z,25.29
2017-10-19T13:47:59.286Z,25.12
2017-10-19T13:50:28.305Z,23.50
2017-10-19T13:52:56.550Z,23.12
2017-10-19T13:55:25.710Z,23.11
2017-10-19T13:57:53.963Z,23.97
2017-10-19T14:00:22.236Z,23.18
2017-10-19T14:02:50.482Z,24.53
2017-10-19T14:05:19.500Z,24.33
2017-10-19T14:07:47.749Z,24.93
2017-10-19T14:10:16.771Z,25.19
2017-10-19T14:12:45.014Z,24.40
2017-10-19T14:15:14.030Z,21.87
2017-10-19T14:17:42.273Z,20.96
2017-10-19T14:20:11.313Z,21.69
2017-10-19T14:22:39.554Z,22.30
2017-10-19T14:25:08.567Z,22.48
2017-10-19T14:27:36.826Z,21.43
2017-10-19T14:30:05.849Z,21.97
2017-10-19T14:32:34.097Z,22.21
2017-10-19T14:35:02.355Z,23.63
2017-10-19T14:37:30.602Z,23.27
2017-10-19T14:39:58.846Z,23.33
2017-10-19T14:42:27.111Z,23.62
2017-10-19T14:44:55.349Z,23.86
2017-10-19T14:47:23.609Z,23.71
2017-10-19T14:49:51.857Z,24.22
2017-10-19T14:52:20.315Z,22.74
2017-10-19T14:54:48.558Z,23.04
2017-10-19T14:57:16.800Z,22.39
2017-10-19T14:59:45.054Z,23.22
2017-10-19T15:02:13.302Z,23.29
2017-10-19T15:04:42.332Z,22.23
2017-10-19T15:07:10.575Z,22.25
2017-10-19T15:09:39.597Z,21.84
2017-10-19T15:12:07.846Z,22.92
2017-10-19T15:14:36.231Z,22.45
2017-10-19T15:17:04.483Z,22.11
2017-10-19T15:19:33.503Z,20.69
2017-10-19T15:22:01.757Z,19.54
2017-10-19T15:24:30.781Z,19.15
2017-10-19T15:26:59.027Z,18.33
2017-10-19T15:29:28.061Z,18.63
2017-10-19T15:31:56.315Z,18.72
2017-10-19T15:34:24.573Z,18.73
2017-10-19T15:36:53.582Z,18.47
2017-10-19T15:39:22.061Z,18.34
2017-10-19T15:41:50.311Z,18.38
2017-10-19T15:44:19.320Z,18.03
2017-10-19T15:46:47.579Z,18.02
2017-10-19T15:49:16.590Z,17.88
2017-10-19T15:51:44.845Z,17.89
2017-10-19T15:54:13.094Z,17.84
2017-10-19T15:56:41.357Z,17.74
2017-10-19T15:59:09.606Z,17.61
2017-10-19T16:01:37.859Z,17.65
2017-10-19T16:04:06.879Z,17.47
2017-10-19T16:06:35.128Z,17.11
2017-10-19T16:09:04.142Z,17.03
2017-10-19T16:11:32.401Z,16.83
2017-10-19T16:14:00.645Z,16.71
2017-10-19T16:16:29.669Z,16.69
2017-10-19T16:18:58.682Z,16.65
2017-10-19T16:21:26.928Z,16.60
2017-10-19T16:23:55.951Z,16.47
2017-10-19T16:26:24.203Z,16.33
2017-10-19T16:28:53.224Z,16.23
2017-10-19T16:31:21.474Z,16.15
2017-10-19T16:33:50.588Z,16.06
2017-10-19T16:36:18.826Z,15.91
2017-10-19T16:38:47.853Z,15.81
2017-10-19T16:41:16.092Z,15.69
2017-10-19T16:43:44.350Z,15.61
2017-10-19T16:46:12.597Z,15.57
2017-10-19T16:48:40.863Z,15.52
2017-10-19T16:51:09.118Z,15.42
2017-10-19T16:53:37.372Z,15.29
2017-10-19T16:56:06.394Z,15.22
2017-10-19T16:58:34.645Z,15.28
2017-10-19T17:01:03.667Z,15.21
2017-10-19T17:03:31.914Z,15.19
2017-10-19T17:06:00.939Z,15.10
2017-10-19T17:08:29.182Z,15.06
2017-10-19T17:10:58.210Z,14.99
2017-10-19T17:13:26.462Z,14.93
2017-10-19T17:15:54.765Z,14.83
2017-10-19T17:18:23.002Z,14.75
2017-10-19T17:20:52.025Z,14.71
2017-10-19T17:23:20.274Z,14.62
2017-10-19T17:25:49.299Z,14.56
2017-10-19T17:28:17.547Z,14.56
2017-10-19T17:30:46.567Z,14.62
2017-10-19T17:33:14.822Z,14.61
2017-10-19T17:35:43.086Z,14.53
2017-10-19T17:38:12.114Z,14.54
2017-10-19T17:40:40.579Z,14.47
2017-10-19T17:43:08.829Z,14.52
2017-10-19T17:45:37.848Z,14.40
2017-10-19T17:48:06.093Z,14.38
2017-10-19T17:50:34.354Z,14.32
2017-10-19T17:53:02.619Z,14.31
2017-10-19T17:55:30.868Z,14.29
2017-10-19T17:57:59.890Z,14.23
2017-10-19T18:00:28.134Z,14.15
2017-10-19T18:02:57.246Z,14.09
2017-10-19T18:05:25.494Z,14.05
2017-10-19T18:07:54.518Z,13.97
2017-10-19T18:10:22.767Z,13.88
2017-10-19T18:12:51.789Z,13.86
2017-10-19T18:15:20.047Z,13.82
2017-10-19T18:17:49.072Z,13.94
2017-10-19T18:20:17.318Z,14.00
2017-10-19T18:22:45.809Z,13.90
2017-10-19T18:25:14.057Z,13.80
2017-10-19T18:27:43.079Z,13.74
2017-10-19T18:30:11.337Z,13.70
2017-10-19T18:32:40.347Z,13.66
2017-10-19T18:35:08.605Z,13.60
2017-10-19T18:37:37.628Z,13.58
2017-10-19T18:40:05.883Z,13.52
2017-10-19T18:42:34.901Z,13.54
2017-10-19T18:45:03.163Z,13.54
2017-10-19T18:47:31.407Z,13.52
2017-10-19T18:49:59.663Z,13.49
2017-10-19T18:52:27.911Z,13.47
2017-10-19T18:54:56.166Z,13.46
2017-10-19T18:57:24.425Z,13.48
2017-10-19T18:59:53.433Z,13.56
2017-10-19T19:02:21.704Z,13.57
2017-10-19T19:04:49.957Z,13.72
2017-10-19T19:07:18.970Z,13.73
2017-10-19T19:09:47.235Z,13.82
2017-10-19T19:12:16.255Z,13.86
2017-10-19T19:14:44.515Z,13.97
2017-10-19T19:17:12.769Z,13.91
2017-10-19T19:19:41.785Z,13.98
2017-10-19T19:22:10.041Z,14.09
2017-10-19T19:24:39.257Z,14.12
2017-10-19T19:27:07.519Z,14.16
2017-10-19T19:29:36.530Z,14.22
2017-10-19T19:32:04.796Z,14.29
2017-10-19T19:34:33.802Z,14.23
2017-10-19T19:37:02.059Z,14.18
2017-10-19T19:39:31.084Z,14.02
2017-10-19T19:41:59.339Z,13.74
2017-10-19T19:44:27.589Z,13.52
2017-10-19T19:46:56.617Z,13.44
2017-10-19T19:49:24.871Z,13.37
2017-10-19T19:51:53.897Z,13.29
2017-10-19T19:54:22.146Z,13.25
2017-10-19T19:56:50.410Z,13.32
2017-10-19T19:59:19.423Z,13.32
2017-10-19T20:01:47.678Z,13.34
2017-10-19T20:04:16.701Z,13.25
2017-10-19T20:06:44.966Z,13.19
2017-10-19T20:09:13.218Z,13.19
2017-10-19T20:11:42.243Z,13.19
2017-10-19T20:14:10.495Z,13.13
2017-10-19T20:16:39.518Z,13.10
2017-10-19T20:19:07.770Z,13.02
2017-10-19T20:21:36.031Z,13.04
2017-10-19T20:24:05.043Z,13.04
2017-10-19T20:26:33.533Z,13.01
2017-10-19T20:29:01.777Z,13.00
2017-10-19T20:31:30.790Z,12.94
2017-10-19T20:33:59.047Z,12.83
2017-10-19T20:36:28.068Z,12.86
2017-10-19T20:38:56.343Z,12.85
2017-10-19T20:41:24.616Z,12.80
2017-10-19T20:43:53.244Z,12.76
2017-10-19T20:46:21.495Z,12.68
2017-10-19T20:48:50.075Z,12.55
2017-10-19T20:51:19.033Z,12.58
2017-10-19T20:53:47.528Z,12.61
2017-10-19T20:58:50.457Z,12.57
2017-10-19T21:01:18.756Z,12.57
2017-10-19T21:03:47.006Z,12.56
2017-10-19T21:06:15.258Z,12.55
2017-10-19T21:08:43.506Z,12.58
2017-10-19T21:11:12.629Z,12.57
2017-10-19T21:13:40.914Z,12.53
2017-10-19T21:16:09.158Z,12.63
2017-10-19T21:18:38.174Z,12.73
2017-10-19T21:21:06.434Z,12.60
2017-10-19T21:23:35.541Z,12.60
2017-10-19T21:26:03.802Z,12.55
2017-10-19T21:28:32.827Z,12.45
2017-10-19T21:31:01.085Z,12.38
2017-10-19T21:33:29.341Z,12.28
2017-10-19T21:35:58.356Z,12.23
2017-10-19T21:38:26.610Z,12.27
2017-10-19T21:40:55.635Z,12.40
2017-10-19T21:43:23.882Z,12.42
2017-10-19T21:45:52.902Z,12.39
2017-10-19T21:48:21.207Z,12.43
2017-10-19T21:50:49.461Z,12.44
2017-10-19T21:53:17.771Z,12.49
2017-10-19T21:55:46.790Z,12.48
2017-10-19T21:58:15.814Z,12.50
2017-10-19T22:00:44.071Z,12.52
2017-10-19T22:03:13.090Z,12.49
2017-10-19T22:05:41.357Z,12.49
2017-10-19T22:08:09.608Z,12.43
2017-10-19T22:10:38.621Z,12.35
2017-10-19T22:13:06.886Z,12.32
2017-10-19T22:15:35.897Z,12.23
2017-10-19T22:18:04.153Z,12.14
2017-10-19T22:20:33.289Z,12.09
2017-10-19T22:29:02.597Z,12.17
2017-10-19T22:31:30.859Z,12.09
2017-10-19T22:33:59.883Z,12.03
2017-10-19T22:36:28.143Z,11.87
2017-10-19T22:38:56.402Z,12.01
2017-10-19T22:41:25.514Z,11.96
2017-10-19T22:43:54.388Z,11.98
2017-10-19T22:46:23.403Z,11.91
2017-10-19T22:48:51.662Z,11.90
2017-10-19T22:51:20.678Z,11.79
2017-10-19T22:53:48.936Z,11.91
2017-10-19T22:56:17.188Z,11.98
2017-10-19T22:58:46.210Z,12.06
2017-10-19T23:01:14.462Z,12.05
2017-10-19T23:03:43.482Z,12.04
2017-10-19T23:06:11.732Z,12.10
2017-10-19T23:08:40.773Z,12.15
2017-10-19T23:11:09.029Z,12.17
2017-10-19T23:13:37.286Z,12.20
2017-10-19T23:16:06.307Z,12.24
2017-10-19T23:18:34.560Z,12.17
2017-10-19T23:21:03.582Z,12.00
2017-10-19T23:23:31.837Z,11.97
2017-10-19T23:26:00.089Z,11.93
2017-10-19T23:28:29.106Z,11.96
2017-10-19T23:30:57.365Z,12.09
2017-10-19T23:33:26.386Z,11.97
2017-10-19T23:35:54.646Z,11.95
2017-10-19T23:38:22.903Z,12.04
2017-10-19T23:40:51.921Z,12.00
2017-10-19T23:43:20.171Z,12.01
2017-10-19T23:45:49.193Z,11.99
2017-10-19T23:48:17.445Z,11.96
2017-10-19T23:50:46.474Z,12.05
2017-10-19T23:53:14.722Z,11.94
2017-10-19T23:55:43.106Z,11.93
2017-10-19T23:58:11.354Z,11.90
